createdAt,value
2023-08-28T11:24:53.232Z,1.20
2023-08-28T11:27:55.061Z,1.27
2023-08-28T11:31:01.703Z,1.20
2023-08-28T11:34:05.007Z,1.10
2023-08-28T11:37:06.510Z,1.10
2023-08-28T11:40:10.077Z,1.00
2023-08-28T11:43:16.310Z,1.10
2023-08-28T11:46:18.262Z,0.95
2023-08-28T11:49:19.858Z,1.05
2023-08-28T11:52:22.638Z,1.10
2023-08-28T11:55:24.449Z,0.80
2023-08-28T11:58:26.093Z,0.90
2023-08-28T12:01:30.515Z,0.98
2023-08-28T12:04:38.781Z,0.90
2023-08-28T12:07:44.258Z,0.80
2023-08-28T12:10:45.924Z,1.02
2023-08-28T12:13:47.470Z,1.00
2023-08-28T12:16:50.319Z,0.70
2023-08-28T12:19:52.621Z,0.60
2023-08-28T12:22:56.320Z,0.70
2023-08-28T12:25:57.905Z,1.17
2023-08-28T12:28:59.421Z,0.85
2023-08-28T12:32:06.963Z,0.77
2023-08-28T12:35:15.288Z,0.80
2023-08-28T12:38:17.076Z,0.80
2023-08-28T12:41:18.901Z,1.02
2023-08-28T12:44:21.670Z,0.88
2023-08-28T12:47:24.121Z,0.80
2023-08-28T12:50:25.903Z,0.90
2023-08-28T12:53:27.460Z,0.80
2023-08-28T12:56:29.141Z,0.70
2023-08-28T12:59:31.002Z,0.90
2023-08-28T13:02:33.012Z,0.70
2023-08-28T13:05:34.605Z,0.73
2023-08-28T13:08:36.119Z,0.70
2023-08-28T13:11:37.727Z,0.60
2023-08-28T13:14:39.274Z,0.50
2023-08-28T13:17:40.772Z,0.98
2023-08-28T13:20:42.473Z,0.70
2023-08-28T13:23:44.013Z,0.70
2023-08-28T13:26:45.843Z,0.60
2023-08-28T13:29:47.531Z,0.80
2023-08-28T13:32:49.853Z,0.95
2023-08-28T13:35:51.471Z,0.60
2023-08-28T13:38:53.014Z,0.80
2023-08-28T13:41:54.633Z,0.80
2023-08-28T13:44:57.492Z,0.60
2023-08-28T13:47:59.272Z,0.70
2023-08-28T13:51:01.044Z,0.57
2023-08-28T13:54:02.586Z,0.55
2023-08-28T13:57:04.924Z,0.80
2023-08-28T14:00:13.018Z,0.80
2023-08-28T14:03:14.774Z,0.70
2023-08-28T14:06:16.341Z,0.68
2023-08-28T14:09:17.887Z,1.05
2023-08-28T14:12:19.524Z,0.70
2023-08-28T14:15:21.398Z,0.70
2023-08-28T14:18:23.140Z,0.80
2023-08-28T14:21:24.708Z,0.90
2023-08-28T14:24:26.234Z,0.80
2023-08-28T14:27:31.909Z,0.82
2023-08-28T14:30:40.261Z,0.60
2023-08-28T14:33:42.027Z,0.70
2023-08-28T14:36:43.516Z,0.70
2023-08-28T14:39:45.015Z,0.50
2023-08-28T14:42:46.936Z,0.80
2023-08-28T14:45:48.654Z,0.70
2023-08-28T14:48:50.675Z,0.77
2023-08-28T14:51:52.225Z,0.75
2023-08-28T14:54:53.771Z,0.60
2023-08-28T14:57:55.371Z,0.60
2023-08-28T15:00:57.458Z,0.77
2023-08-28T15:03:59.135Z,0.80
2023-08-28T15:07:02.013Z,0.70
2023-08-28T15:10:06.486Z,0.77
2023-08-28T15:13:08.212Z,0.60
2023-08-28T15:16:09.724Z,0.63
2023-08-28T15:19:11.257Z,0.70
2023-08-28T15:22:12.888Z,0.60
2023-08-28T15:25:14.594Z,0.70
2023-08-28T15:28:16.836Z,0.80
2023-08-28T15:31:19.149Z,0.52
2023-08-28T15:34:20.806Z,0.80
2023-08-28T15:37:22.341Z,0.93
2023-08-28T15:40:24.483Z,0.80
2023-08-28T15:43:26.874Z,1.02
2023-08-28T15:46:28.843Z,0.73
2023-08-28T15:49:30.451Z,0.95
2023-08-28T15:52:32.184Z,0.80
2023-08-28T15:55:33.681Z,0.90
2023-08-28T15:58:35.540Z,0.88
2023-08-28T16:01:38.233Z,0.50
2023-08-28T16:04:40.785Z,0.70
2023-08-28T16:07:42.420Z,0.73
2023-08-28T16:10:44.085Z,0.77
2023-08-28T16:13:45.694Z,0.60
2023-08-28T16:16:47.419Z,0.70
2023-08-28T19:42:15.553Z,2.17
2023-08-28T19:45:17.069Z,2.58
2023-08-28T19:48:18.569Z,2.30
2023-08-28T19:51:20.093Z,2.28
2023-08-28T19:54:23.243Z,2.35
2023-08-28T19:57:25.993Z,2.22
2023-08-28T20:00:27.913Z,2.45
2023-08-28T20:03:29.631Z,2.10
2023-08-28T20:06:31.274Z,1.80
2023-08-28T20:09:33.578Z,2.15
2023-08-28T20:12:35.197Z,1.70
2023-08-28T20:15:36.739Z,1.70
2023-08-28T20:18:38.292Z,1.42
2023-08-28T20:21:39.886Z,1.50
2023-08-28T20:24:41.452Z,1.88
2023-08-28T20:27:44.280Z,1.60
2023-08-28T20:30:45.969Z,1.63
2023-08-28T20:33:47.980Z,1.58
2023-08-28T20:36:49.520Z,1.42
2023-08-28T20:39:51.003Z,1.63
2023-08-28T20:42:52.516Z,1.33
2023-08-28T20:45:58.151Z,1.40
2023-08-28T20:48:59.978Z,1.67
2023-08-28T20:52:01.518Z,1.65
2023-08-28T20:55:04.552Z,1.30
